createdAt,value
2022-11-18T00:00:56.964Z,14.80
2022-11-18T00:03:23.899Z,14.70
2022-11-18T00:05:57.806Z,14.80
2022-11-18T00:08:25.607Z,14.70
2022-11-18T00:10:52.864Z,14.70
2022-11-18T00:13:38.964Z,14.70
2022-11-18T00:16:09.112Z,14.70
2022-11-18T00:18:36.372Z,14.60
2022-11-18T00:21:08.746Z,14.60
2022-11-18T00:23:35.782Z,14.60
2022-11-18T00:26:08.739Z,14.60
2022-11-18T00:28:36.038Z,14.60
2022-11-18T00:31:12.163Z,14.60
2022-11-18T00:33:39.334Z,14.60
2022-11-18T00:36:08.640Z,14.60
2022-11-18T00:38:35.547Z,14.60
2022-11-18T00:41:05.100Z,14.60
2022-11-18T00:43:32.667Z,14.60
2022-11-18T00:45:59.473Z,14.60
2022-11-18T00:48:26.355Z,14.50
2022-11-18T00:50:55.591Z,14.50
2022-11-18T00:53:23.907Z,14.50
2022-11-18T00:55:50.816Z,14.50
2022-11-18T00:58:18.170Z,14.50
2022-11-18T01:00:48.715Z,14.50
2022-11-18T01:03:15.594Z,14.50
2022-11-18T01:05:42.402Z,14.40
2022-11-18T01:08:10.343Z,14.40
2022-11-18T01:10:38.640Z,14.40
2022-11-18T01:13:22.483Z,14.40
2022-11-18T01:15:54.875Z,14.40
2022-11-18T01:18:31.004Z,14.40
2022-11-18T01:21:02.607Z,14.50
2022-11-18T01:23:29.951Z,14.40
2022-11-18T01:25:56.754Z,14.50
2022-11-18T01:28:24.248Z,14.50
2022-11-18T01:30:51.567Z,14.40
2022-11-18T01:33:18.389Z,14.40
2022-11-18T01:35:45.494Z,14.40
2022-11-18T01:38:14.006Z,14.40
2022-11-18T01:40:41.822Z,14.40
2022-11-18T01:43:14.202Z,14.50
2022-11-18T01:45:42.399Z,14.40
2022-11-18T01:48:11.780Z,14.50
2022-11-18T01:50:43.615Z,14.50
2022-11-18T01:53:17.130Z,14.50
2022-11-18T01:55:48.431Z,14.50
2022-11-18T01:58:48.367Z,14.50
2022-11-18T02:01:15.644Z,14.50
2022-11-18T02:03:44.449Z,14.50
2022-11-18T02:06:11.653Z,14.50
2022-11-18T02:08:40.190Z,14.50
2022-11-18T02:11:31.273Z,14.50
2022-11-18T02:13:59.678Z,14.50
2022-11-18T02:16:51.962Z,14.50
2022-11-18T02:19:46.894Z,14.50
2022-11-18T02:22:25.697Z,14.40
2022-11-18T02:25:11.352Z,14.40
2022-11-18T02:27:56.613Z,14.40
2022-11-18T02:30:23.934Z,14.40
2022-11-18T02:32:56.483Z,14.40
2022-11-18T02:35:31.592Z,14.40
2022-11-18T02:38:31.014Z,14.40
2022-11-18T02:41:12.724Z,14.40
2022-11-18T02:43:49.357Z,14.30
2022-11-18T02:46:23.909Z,14.40
2022-11-18T02:48:52.363Z,14.40
2022-11-18T02:51:25.043Z,14.40
2022-11-18T02:54:00.739Z,14.40
2022-11-18T02:56:28.246Z,14.40
2022-11-18T02:58:55.589Z,14.40
2022-11-18T03:01:28.858Z,14.40
2022-11-18T03:03:56.325Z,14.50
2022-11-18T03:06:45.344Z,14.50
2022-11-18T03:09:21.494Z,14.50
2022-11-18T03:12:00.196Z,14.50
2022-11-18T03:14:38.888Z,14.50
2022-11-18T03:17:24.366Z,14.50
2022-11-18T03:20:03.316Z,14.50
2022-11-18T03:22:53.053Z,14.50
2022-11-18T03:25:34.143Z,14.50
2022-11-18T03:28:03.921Z,14.50
2022-11-18T03:30:33.419Z,14.50
2022-11-18T03:33:21.567Z,14.50
2022-11-18T03:35:52.272Z,14.50
2022-11-18T03:38:28.954Z,14.60
2022-11-18T03:41:00.511Z,14.60
2022-11-18T03:43:32.126Z,14.60
2022-11-18T03:46:15.279Z,14.60
2022-11-18T03:48:48.109Z,14.60
2022-11-18T03:51:20.448Z,14.60
2022-11-18T03:53:55.917Z,14.60
2022-11-18T03:56:26.513Z,14.60
2022-11-18T03:59:00.523Z,14.60
2022-11-18T04:01:43.453Z,14.60
2022-11-18T04:04:10.992Z,14.60
2022-11-18T04:06:50.442Z,14.60
2022-11-18T04:09:25.970Z,14.60
2022-11-18T04:12:05.043Z,14.60
2022-11-18T04:14:40.339Z,14.60
2022-11-18T04:17:16.255Z,14.60
2022-11-18T04:19:43.505Z,14.60
2022-11-18T04:22:11.205Z,14.60
2022-11-18T04:24:38.544Z,14.60
2022-11-18T04:27:06.474Z,14.60
2022-11-18T04:29:34.344Z,14.60
2022-11-18T04:32:02.488Z,14.60
2022-11-18T04:34:30.715Z,14.60
2022-11-18T04:36:58.181Z,14.60
2022-11-18T04:39:25.032Z,14.60
2022-11-18T04:41:57.742Z,14.60
2022-11-18T04:44:30.299Z,14.60
2022-11-18T04:46:58.921Z,14.60
2022-11-18T04:49:26.790Z,14.60
2022-11-18T04:51:53.731Z,14.60
2022-11-18T04:54:21.194Z,14.60
2022-11-18T04:56:49.601Z,14.60
2022-11-18T04:59:25.318Z,14.70
2022-11-18T05:01:53.159Z,14.70
2022-11-18T05:04:22.819Z,14.70
2022-11-18T05:06:49.775Z,14.70
2022-11-18T05:09:18.064Z,14.70
2022-11-18T05:12:04.306Z,14.70
2022-11-18T05:14:32.301Z,14.70
2022-11-18T05:17:00.908Z,14.70
2022-11-18T05:19:27.885Z,14.70
2022-11-18T05:21:54.949Z,14.70
2022-11-18T05:24:24.138Z,14.70
2022-11-18T05:26:55.062Z,14.60
2022-11-18T05:29:22.730Z,14.70
2022-11-18T05:31:50.194Z,14.70
2022-11-18T05:34:18.381Z,14.70
2022-11-18T05:36:45.549Z,14.70
2022-11-18T05:39:12.582Z,14.70
2022-11-18T05:41:57.819Z,14.70
2022-11-18T05:44:24.622Z,14.70
2022-11-18T05:46:51.508Z,14.70
2022-11-18T05:49:18.421Z,14.70
2022-11-18T05:51:45.451Z,14.70
2022-11-18T05:54:15.829Z,14.70
2022-11-18T05:56:46.797Z,14.70
2022-11-18T05:59:14.430Z,14.70
2022-11-18T06:01:54.112Z,14.70
2022-11-18T06:04:23.973Z,14.70
2022-11-18T06:06:54.515Z,14.70
2022-11-18T06:09:25.566Z,14.70
2022-11-18T06:11:57.136Z,14.70
2022-11-18T06:14:39.574Z,14.70
2022-11-18T06:17:11.792Z,14.70
2022-11-18T06:19:39.008Z,14.70
2022-11-18T06:22:07.319Z,14.70
2022-11-18T06:24:34.866Z,14.70
2022-11-18T06:27:02.088Z,14.70
2022-11-18T06:29:30.731Z,14.70
2022-11-18T06:31:57.694Z,14.70
2022-11-18T06:34:24.543Z,14.70
2022-11-18T06:36:51.354Z,14.70
2022-11-18T06:39:18.391Z,14.60
2022-11-18T06:41:45.275Z,14.60
2022-11-18T06:44:12.660Z,14.60
2022-11-18T06:46:57.615Z,14.60
2022-11-18T06:49:26.252Z,14.60
2022-11-18T06:51:53.216Z,14.50
2022-11-18T06:54:20.361Z,14.50
2022-11-18T06:56:47.275Z,14.50
2022-11-18T06:59:14.802Z,14.60
2022-11-18T07:01:42.291Z,14.50
2022-11-18T07:04:09.342Z,14.50
2022-11-18T07:06:37.073Z,14.50
2022-11-18T07:09:06.935Z,14.50
2022-11-18T07:11:34.089Z,14.50
2022-11-18T07:14:01.338Z,14.50
2022-11-18T07:16:28.582Z,14.50
2022-11-18T07:18:56.345Z,14.50
2022-11-18T07:21:28.219Z,14.50
2022-11-18T07:23:56.520Z,14.50
2022-11-18T07:26:23.765Z,14.50
2022-11-18T07:28:50.609Z,14.50
2022-11-18T07:31:19.941Z,14.40
2022-11-18T07:33:47.838Z,14.40
2022-11-18T07:36:19.937Z,14.40
2022-11-18T07:38:47.511Z,14.40
2022-11-18T07:41:16.892Z,14.40
2022-11-18T07:43:44.183Z,14.40
2022-11-18T07:46:15.655Z,14.40
2022-11-18T07:48:44.320Z,14.40
2022-11-18T07:51:11.771Z,14.40
2022-11-18T07:53:38.727Z,14.50
2022-11-18T07:56:06.376Z,14.50
2022-11-18T07:58:33.365Z,14.40
2022-11-18T08:01:07.710Z,14.50
2022-11-18T08:03:34.466Z,14.40
2022-11-18T08:06:02.139Z,14.40
2022-11-18T08:08:28.974Z,14.50
2022-11-18T08:11:00.681Z,14.40
2022-11-18T08:13:28.443Z,14.40
2022-11-18T08:15:55.971Z,14.40
2022-11-18T08:18:23.241Z,14.40
2022-11-18T08:20:50.154Z,14.40
2022-11-18T08:23:17.729Z,14.40
2022-11-18T08:25:45.703Z,14.40
2022-11-18T08:28:13.880Z,14.40
2022-11-18T08:30:40.793Z,14.40
2022-11-18T08:33:07.691Z,14.40
2022-11-18T08:35:34.477Z,14.40
2022-11-18T08:38:01.692Z,14.40
2022-11-18T08:40:28.473Z,14.40
2022-11-18T08:42:55.239Z,14.40
2022-11-18T08:45:22.022Z,14.40
2022-11-18T08:47:48.844Z,14.40
2022-11-18T08:50:15.847Z,14.40
2022-11-18T08:52:42.652Z,14.40
2022-11-18T08:55:09.599Z,14.40
2022-11-18T08:57:36.457Z,14.40
2022-11-18T09:00:04.933Z,14.40
2022-11-18T09:02:31.993Z,14.40
2022-11-18T09:04:58.788Z,14.40
2022-11-18T09:07:25.766Z,14.40
2022-11-18T09:09:52.609Z,14.40
2022-11-18T09:12:19.570Z,14.40
2022-11-18T09:17:34.183Z,14.40
2022-11-18T09:20:00.973Z,14.40
2022-11-18T09:22:27.771Z,14.40
2022-11-18T09:24:54.577Z,14.40
2022-11-18T09:27:21.344Z,14.40
2022-11-18T09:29:48.106Z,14.40
2022-11-18T09:32:14.966Z,14.40
2022-11-18T09:34:41.728Z,14.30
2022-11-18T09:37:08.584Z,14.40
2022-11-18T09:39:36.989Z,14.30
2022-11-18T09:42:15.955Z,14.30
2022-11-18T09:44:57.740Z,14.30
2022-11-18T09:47:32.857Z,14.30
2022-11-18T09:50:20.767Z,14.30
2022-11-18T09:53:21.519Z,14.30
2022-11-18T09:55:50.323Z,14.30
2022-11-18T09:58:28.960Z,14.30
2022-11-18T10:00:55.849Z,14.30
2022-11-18T10:03:30.247Z,14.30
2022-11-18T10:05:59.957Z,14.30
2022-11-18T10:08:50.881Z,14.40
2022-11-18T10:11:26.525Z,14.40
2022-11-18T10:14:25.269Z,14.40
2022-11-18T10:17:18.889Z,14.40
2022-11-18T10:19:57.461Z,14.40
2022-11-18T10:22:39.223Z,14.40
2022-11-18T10:25:16.148Z,14.40
2022-11-18T10:27:45.051Z,14.40
2022-11-18T10:30:16.878Z,14.50
2022-11-18T10:32:59.653Z,14.50
2022-11-18T10:35:28.320Z,14.50
2022-11-18T10:38:21.251Z,14.50
2022-11-18T10:40:58.488Z,14.50
2022-11-18T10:43:44.076Z,14.60
2022-11-18T10:46:39.380Z,14.60
2022-11-18T10:49:08.910Z,14.60
2022-11-18T10:51:45.647Z,14.60
2022-11-18T10:54:21.545Z,14.60
2022-11-18T10:56:59.429Z,14.60
2022-11-18T10:59:33.713Z,14.60
2022-11-18T11:02:33.103Z,14.60
2022-11-18T11:05:03.968Z,14.60
2022-11-18T11:07:32.768Z,14.70
2022-11-18T11:10:00.507Z,14.70
2022-11-18T11:12:31.141Z,14.70
2022-11-18T11:15:01.886Z,14.70
2022-11-18T11:18:13.967Z,14.70
2022-11-18T11:20:41.225Z,14.70
2022-11-18T11:23:14.843Z,14.70
2022-11-18T11:29:01.827Z,14.70
2022-11-18T11:31:45.494Z,14.70
2022-11-18T11:34:26.040Z,14.70
2022-11-18T11:37:03.480Z,14.80
2022-11-18T11:39:49.006Z,14.70
2022-11-18T11:42:34.577Z,14.80
2022-11-18T11:45:20.337Z,14.80
2022-11-18T11:48:10.859Z,14.80
2022-11-18T11:51:03.268Z,14.70
2022-11-18T11:54:11.911Z,14.80
2022-11-18T11:56:41.039Z,14.80
2022-11-18T11:59:18.959Z,14.80
2022-11-18T12:01:48.924Z,14.80
2022-11-18T12:04:22.380Z,14.80
2022-11-18T12:06:52.505Z,14.80
2022-11-18T12:09:33.371Z,14.80
2022-11-18T12:12:36.737Z,14.90
2022-11-18T12:15:24.603Z,14.80
2022-11-18T12:18:16.229Z,14.90
2022-11-18T12:20:48.391Z,14.80
2022-11-18T12:23:22.846Z,14.90
2022-11-18T12:26:10.309Z,14.90
2022-11-18T12:28:42.826Z,14.90
2022-11-18T12:31:18.666Z,14.90
2022-11-18T12:34:01.255Z,14.90
2022-11-18T12:36:39.809Z,14.90
2022-11-18T12:39:27.624Z,14.90
2022-11-18T12:42:17.045Z,14.90
2022-11-18T12:44:46.362Z,14.90
2022-11-18T12:47:32.726Z,15.00
2022-11-18T12:49:59.463Z,15.00
2022-11-18T12:52:29.627Z,15.00
2022-11-18T12:55:12.121Z,15.00
2022-11-18T12:57:41.304Z,15.00
2022-11-18T13:00:18.997Z,15.00
2022-11-18T13:02:53.845Z,15.00
2022-11-18T13:05:23.335Z,15.00
2022-11-18T13:08:14.503Z,15.00
2022-11-18T13:11:18.033Z,15.00
2022-11-18T13:13:46.047Z,15.10
2022-11-18T13:16:40.851Z,15.10
2022-11-18T13:19:08.002Z,15.10
2022-11-18T13:21:53.539Z,15.10
2022-11-18T13:24:22.370Z,15.10
2022-11-18T13:26:56.533Z,15.10
2022-11-18T13:29:29.352Z,15.10
2022-11-18T13:32:03.184Z,15.10
2022-11-18T13:34:31.712Z,15.10
2022-11-18T13:37:00.146Z,15.10
2022-11-18T13:39:32.263Z,15.10
2022-11-18T13:42:14.297Z,15.20
2022-11-18T13:44:46.520Z,15.10
2022-11-18T13:47:54.275Z,15.20
2022-11-18T13:50:26.869Z,15.20
2022-11-18T13:53:00.849Z,15.20
2022-11-18T13:55:36.282Z,15.20
2022-11-18T13:58:19.990Z,15.20
2022-11-18T14:01:03.941Z,15.20
2022-11-18T14:03:48.783Z,15.20
2022-11-18T14:06:35.167Z,15.20
2022-11-18T14:09:19.561Z,15.20
2022-11-18T14:11:58.519Z,15.20
2022-11-18T14:14:51.973Z,15.20
2022-11-18T14:17:21.993Z,15.20
2022-11-18T14:19:51.440Z,15.20
2022-11-18T14:22:21.883Z,15.20
2022-11-18T14:25:05.019Z,15.20
2022-11-18T14:27:49.230Z,15.20
2022-11-18T14:30:37.105Z,15.30
2022-11-18T14:33:03.869Z,15.20
2022-11-18T14:35:34.643Z,15.30
2022-11-18T14:38:35.457Z,15.30
2022-11-18T14:41:00.054Z,15.30
2022-11-18T14:43:26.913Z,15.20
2022-11-18T14:45:58.360Z,15.30
2022-11-18T14:48:32.123Z,15.20
2022-11-18T14:51:00.313Z,15.20
2022-11-18T14:53:27.404Z,15.30
2022-11-18T14:55:57.090Z,15.20
2022-11-18T14:58:23.865Z,15.20
2022-11-18T15:00:50.823Z,15.20
2022-11-18T15:03:17.775Z,15.20
2022-11-18T15:05:44.968Z,15.20
2022-11-18T15:08:11.802Z,15.20
2022-11-18T15:10:38.701Z,15.20
2022-11-18T15:13:05.664Z,15.20
2022-11-18T15:15:32.504Z,15.20
2022-11-18T15:17:59.593Z,15.20
2022-11-18T15:20:26.482Z,15.10
2022-11-18T15:22:53.379Z,15.10
2022-11-18T15:25:20.145Z,15.10
2022-11-18T15:27:47.017Z,15.10
2022-11-18T15:30:15.518Z,15.10
2022-11-18T15:32:43.020Z,15.10
2022-11-18T15:35:12.417Z,15.00
2022-11-18T15:37:39.752Z,15.00
2022-11-18T15:40:06.968Z,15.00
2022-11-18T15:42:38.114Z,15.00
2022-11-18T15:45:09.490Z,14.90
2022-11-18T15:47:36.297Z,14.90
2022-11-18T15:50:03.257Z,14.90
2022-11-18T15:52:30.030Z,14.90
2022-11-18T15:54:56.817Z,14.80
2022-11-18T15:57:23.597Z,14.90
2022-11-18T15:59:50.373Z,14.80
2022-11-18T16:02:17.152Z,14.80
2022-11-18T16:04:44.001Z,14.80
2022-11-18T16:07:11.106Z,14.80
2022-11-18T16:09:56.365Z,14.80
2022-11-18T16:12:41.688Z,14.80
2022-11-18T16:15:31.578Z,14.70
2022-11-18T16:17:58.366Z,14.70
2022-11-18T16:20:25.999Z,14.70
2022-11-18T16:22:53.974Z,14.70
2022-11-18T16:25:21.423Z,14.70
2022-11-18T16:27:48.290Z,14.70
2022-11-18T16:30:34.027Z,14.70
2022-11-18T16:33:01.338Z,14.70
2022-11-18T16:35:28.254Z,14.70
2022-11-18T16:37:55.838Z,14.70
2022-11-18T16:40:22.667Z,14.60
2022-11-18T16:42:53.384Z,14.70
2022-11-18T16:45:20.156Z,14.60
2022-11-18T16:47:47.077Z,14.70
2022-11-18T16:50:14.086Z,14.70
2022-11-18T16:52:41.081Z,14.60
2022-11-18T16:55:08.443Z,14.70
2022-11-18T16:57:35.650Z,14.70
2022-11-18T17:00:04.184Z,14.70
2022-11-18T17:02:32.761Z,14.70
2022-11-18T17:05:00.096Z,14.70
2022-11-18T17:07:27.116Z,14.70
2022-11-18T17:09:54.180Z,14.60
2022-11-18T17:12:21.171Z,14.60
2022-11-18T17:14:47.962Z,14.60
2022-11-18T17:17:14.937Z,14.60
2022-11-18T17:19:41.940Z,14.60
2022-11-18T17:22:08.783Z,14.60
2022-11-18T17:24:35.613Z,14.60
2022-11-18T17:27:02.410Z,14.60
2022-11-18T17:29:29.367Z,14.60
2022-11-18T17:31:56.159Z,14.60
2022-11-18T17:34:23.091Z,14.60
2022-11-18T17:36:50.449Z,14.60
2022-11-18T17:39:18.856Z,14.60
2022-11-18T17:42:04.534Z,14.60
2022-11-18T17:44:31.467Z,14.60
2022-11-18T17:46:58.282Z,14.60
2022-11-18T17:49:25.563Z,14.60
2022-11-18T17:51:52.413Z,14.60
2022-11-18T17:54:20.775Z,14.60
2022-11-18T17:56:48.503Z,14.50
2022-11-18T17:59:17.319Z,14.50
2022-11-18T18:01:45.447Z,14.50
2022-11-18T18:04:20.494Z,14.50
2022-11-18T18:06:51.050Z,14.50
2022-11-18T18:09:18.956Z,14.50
2022-11-18T18:11:46.091Z,14.50
2022-11-18T18:14:12.931Z,14.50
2022-11-18T18:16:50.474Z,14.50
2022-11-18T18:19:19.984Z,14.50
2022-11-18T18:21:47.864Z,14.50
2022-11-18T18:24:17.223Z,14.50
2022-11-18T18:26:44.516Z,14.50
2022-11-18T18:29:12.268Z,14.50
2022-11-18T18:31:39.238Z,14.40
2022-11-18T18:34:06.274Z,14.40
2022-11-18T18:36:33.567Z,14.40
2022-11-18T18:39:01.637Z,14.40
2022-11-18T18:41:28.505Z,14.40
2022-11-18T18:43:56.493Z,14.40
2022-11-18T18:46:33.818Z,14.30
2022-11-18T18:49:08.784Z,14.40
2022-11-18T18:51:39.790Z,14.40
2022-11-18T18:54:07.937Z,14.40
2022-11-18T18:56:34.793Z,14.40
2022-11-18T18:59:02.216Z,14.30
2022-11-18T19:01:29.663Z,14.30
2022-11-18T19:04:02.042Z,14.30
2022-11-18T19:06:53.271Z,14.30
2022-11-18T19:09:21.702Z,14.30
2022-11-18T19:12:07.122Z,14.30
2022-11-18T19:14:35.239Z,14.30
2022-11-18T19:17:09.578Z,14.30
2022-11-18T19:19:57.574Z,14.30
2022-11-18T19:22:25.101Z,14.30
2022-11-18T19:24:52.511Z,14.40
2022-11-18T19:27:20.342Z,14.30
2022-11-18T19:29:47.443Z,14.30
2022-11-18T19:32:15.197Z,14.30
2022-11-18T19:34:42.063Z,14.40
2022-11-18T19:37:08.974Z,14.30
2022-11-18T19:39:35.775Z,14.30
2022-11-18T19:42:02.631Z,14.30
2022-11-18T19:44:29.820Z,14.30
2022-11-18T19:46:56.681Z,14.40
2022-11-18T19:49:23.806Z,14.40
2022-11-18T19:51:50.659Z,14.40
2022-11-18T19:54:17.495Z,14.30
2022-11-18T19:56:44.368Z,14.40
2022-11-18T19:59:12.619Z,14.40
2022-11-18T20:01:40.018Z,14.40
2022-11-18T20:04:06.885Z,14.40
2022-11-18T20:06:36.051Z,14.30
2022-11-18T20:09:06.667Z,14.30
2022-11-18T20:11:34.901Z,14.30
2022-11-18T20:14:01.934Z,14.30
2022-11-18T20:16:28.767Z,14.30
2022-11-18T20:19:02.883Z,14.30
2022-11-18T20:21:34.165Z,14.30
2022-11-18T20:24:02.916Z,14.30
2022-11-18T20:26:33.327Z,14.30
2022-11-18T20:29:00.469Z,14.40
2022-11-18T20:31:28.185Z,14.40
2022-11-18T20:33:56.391Z,14.40
2022-11-18T20:36:28.687Z,14.40
2022-11-18T20:38:58.116Z,14.40
2022-11-18T20:41:26.130Z,14.40
2022-11-18T20:43:53.353Z,14.40
2022-11-18T20:46:21.710Z,14.40
2022-11-18T20:48:49.515Z,14.40
2022-11-18T20:51:23.252Z,14.40
2022-11-18T20:53:51.160Z,14.40
2022-11-18T20:56:19.802Z,14.40
2022-11-18T20:58:47.066Z,14.40
2022-11-18T21:01:18.286Z,14.40
2022-11-18T21:03:52.554Z,14.40
2022-11-18T21:06:21.024Z,14.30
2022-11-18T21:08:48.231Z,14.30
2022-11-18T21:11:15.973Z,14.30
2022-11-18T21:14:01.625Z,14.30
2022-11-18T21:16:28.572Z,14.30
2022-11-18T21:18:55.447Z,14.30
2022-11-18T21:21:40.809Z,14.20
2022-11-18T21:24:08.332Z,14.20
2022-11-18T21:26:36.424Z,14.20
2022-11-18T21:29:06.745Z,14.20
2022-11-18T21:31:34.376Z,14.10
2022-11-18T21:34:01.580Z,14.10
2022-11-18T21:36:29.328Z,14.10
2022-11-18T21:39:00.468Z,14.10
2022-11-18T21:41:28.416Z,14.10
2022-11-18T21:44:05.428Z,14.10
2022-11-18T21:46:37.835Z,14.10
2022-11-18T21:49:06.090Z,14.10
2022-11-18T21:51:33.669Z,14.10
2022-11-18T21:54:01.423Z,14.10
2022-11-18T21:56:31.162Z,14.10
2022-11-18T21:59:00.472Z,14.10
2022-11-18T22:01:29.482Z,14.10
2022-11-18T22:03:58.505Z,14.10
2022-11-18T22:06:26.990Z,14.10
2022-11-18T22:08:53.857Z,14.10
2022-11-18T22:11:22.441Z,14.10
2022-11-18T22:13:51.822Z,14.10
2022-11-18T22:16:22.299Z,14.10
2022-11-18T22:18:56.515Z,14.10
2022-11-18T22:21:28.737Z,14.10
2022-11-18T22:24:00.065Z,14.10
2022-11-18T22:26:27.869Z,14.00
2022-11-18T22:28:56.821Z,14.00
2022-11-18T22:31:26.293Z,14.10
2022-11-18T22:33:54.443Z,14.00
2022-11-18T22:36:23.385Z,14.00
2022-11-18T22:38:50.662Z,14.00
2022-11-18T22:41:38.571Z,14.00
2022-11-18T22:44:07.947Z,14.00
2022-11-18T22:46:36.710Z,13.90
2022-11-18T22:49:04.458Z,13.90
2022-11-18T22:51:31.890Z,13.90
2022-11-18T22:56:45.533Z,13.90
2022-11-18T22:59:12.759Z,13.90
2022-11-18T23:01:39.597Z,13.90
2022-11-18T23:04:07.128Z,13.90
2022-11-18T23:06:34.027Z,13.90
2022-11-18T23:09:00.865Z,13.90
2022-11-18T23:11:46.740Z,13.90
2022-11-18T23:14:13.538Z,13.90
2022-11-18T23:16:42.573Z,13.80
2022-11-18T23:19:15.011Z,13.80
2022-11-18T23:21:43.130Z,13.80
2022-11-18T23:24:11.386Z,13.80
2022-11-18T23:26:38.479Z,13.80
2022-11-18T23:29:05.723Z,13.70
2022-11-18T23:31:32.647Z,13.70
2022-11-18T23:33:59.524Z,13.70
2022-11-18T23:36:26.803Z,13.70
2022-11-18T23:38:54.185Z,13.70
2022-11-18T23:41:21.936Z,13.70
2022-11-18T23:43:49.387Z,13.60
2022-11-18T23:46:17.579Z,13.60
2022-11-18T23:48:45.390Z,13.60
2022-11-18T23:51:14.807Z,13.60
2022-11-18T23:53:41.879Z,13.60
2022-11-18T23:56:15.326Z,13.60
2022-11-18T23:58:44.332Z,13.60
